createdAt,value
2017-09-03T00:02:07.864Z,28.30
2017-09-03T00:04:33.626Z,18.40
2017-09-03T00:06:59.413Z,16.80
2017-09-03T00:09:25.176Z,26.70
2017-09-03T00:11:50.936Z,22.17
2017-09-03T00:14:16.707Z,20.27
2017-09-03T00:16:42.615Z,18.17
2017-09-03T00:19:08.480Z,20.90
2017-09-03T00:21:34.228Z,23.93
2017-09-03T00:24:00.027Z,16.87
2017-09-03T00:26:25.775Z,20.13
2017-09-03T00:28:51.528Z,21.20
2017-09-03T00:31:17.320Z,18.57
2017-09-03T00:33:43.079Z,19.63
2017-09-03T00:36:08.883Z,22.47
2017-09-03T00:38:34.650Z,18.73
2017-09-03T00:43:22.077Z,18.58
2017-09-03T00:45:47.892Z,21.17
2017-09-03T00:48:13.654Z,22.87
2017-09-03T00:50:39.419Z,18.63
2017-09-03T00:53:05.194Z,22.10
2017-09-03T00:55:31.088Z,19.23
2017-09-03T00:57:56.845Z,20.53
2017-09-03T01:00:22.596Z,19.73
2017-09-03T01:02:48.398Z,14.90
2017-09-03T01:05:14.150Z,16.27
2017-09-03T01:07:39.936Z,16.90
2017-09-03T01:10:05.690Z,15.87
2017-09-03T01:12:31.581Z,14.83
2017-09-03T01:14:57.362Z,12.53
2017-09-03T01:17:23.119Z,15.47
2017-09-03T01:19:48.872Z,15.23
2017-09-03T01:22:14.651Z,12.73
2017-09-03T01:24:40.387Z,14.00
2017-09-03T01:27:06.155Z,14.87
2017-09-03T01:29:31.940Z,14.87
2017-09-03T01:31:57.670Z,15.00
2017-09-03T01:34:23.471Z,11.03
2017-09-03T01:36:49.243Z,16.87
2017-09-03T01:39:14.974Z,13.10
2017-09-03T01:41:40.753Z,12.93
2017-09-03T01:44:06.541Z,14.70
2017-09-03T01:46:32.290Z,14.47
2017-09-03T01:48:58.063Z,12.50
2017-09-03T01:51:23.826Z,12.40
2017-09-03T01:53:49.603Z,15.23
2017-09-03T01:56:15.462Z,13.50
2017-09-03T01:58:41.255Z,15.37
2017-09-03T02:01:07.004Z,12.63
2017-09-03T02:03:32.755Z,21.20
2017-09-03T02:05:58.514Z,13.90
2017-09-03T02:08:24.383Z,13.30
2017-09-03T02:10:50.139Z,15.43
2017-09-03T02:13:15.878Z,14.27
2017-09-03T02:15:41.647Z,10.90
2017-09-03T02:18:07.391Z,10.13
2017-09-03T02:20:33.176Z,14.67
2017-09-03T02:22:58.936Z,12.87
2017-09-03T02:25:24.747Z,10.80
2017-09-03T02:27:50.534Z,11.20
2017-09-03T02:30:16.324Z,14.33
2017-09-03T02:32:42.109Z,19.47
2017-09-03T02:35:07.847Z,13.53
2017-09-03T02:37:33.605Z,19.20
2017-09-03T02:39:59.367Z,15.10
2017-09-03T02:42:25.200Z,10.67
2017-09-03T02:44:50.998Z,15.07
2017-09-03T02:47:16.737Z,14.90
2017-09-03T02:49:42.492Z,12.43
2017-09-03T02:52:08.264Z,11.70
2017-09-03T02:54:34.162Z,10.60
2017-09-03T02:56:59.942Z,13.03
2017-09-03T02:59:25.683Z,12.90
2017-09-03T03:01:51.432Z,13.90
2017-09-03T03:04:17.193Z,14.90
2017-09-03T03:06:42.975Z,14.10
2017-09-03T03:09:08.732Z,13.63
2017-09-03T03:11:34.651Z,13.50
2017-09-03T03:14:00.392Z,12.90
2017-09-03T03:16:26.148Z,9.80
2017-09-03T03:18:51.911Z,10.47
2017-09-03T03:21:17.658Z,9.97
2017-09-03T03:23:43.420Z,12.97
2017-09-03T03:26:09.154Z,14.27
2017-09-03T03:28:34.932Z,8.33
2017-09-03T03:31:00.697Z,13.20
2017-09-03T03:33:27.274Z,12.13
2017-09-03T03:35:53.034Z,11.65
2017-09-03T03:38:18.822Z,10.23
2017-09-03T03:40:44.590Z,9.03
2017-09-03T03:43:10.326Z,10.33
2017-09-03T03:45:36.104Z,11.13
2017-09-03T03:48:01.841Z,10.80
2017-09-03T03:50:27.598Z,10.17
2017-09-03T03:52:53.379Z,9.37
2017-09-03T03:55:19.131Z,9.40
2017-09-03T03:57:44.878Z,9.83
2017-09-03T04:00:10.660Z,11.80
2017-09-03T04:02:36.472Z,9.57
2017-09-03T04:05:02.247Z,8.33
2017-09-03T04:07:27.984Z,8.60
2017-09-03T04:09:54.420Z,12.97
2017-09-03T04:12:20.196Z,14.77
2017-09-03T04:14:45.989Z,12.33
2017-09-03T04:17:11.746Z,10.00
2017-09-03T04:19:37.503Z,12.43
2017-09-03T04:22:03.323Z,10.10
2017-09-03T04:24:29.093Z,9.87
2017-09-03T04:26:54.880Z,11.80
2017-09-03T04:29:20.620Z,10.13
2017-09-03T04:31:46.376Z,14.57
2017-09-03T04:34:12.158Z,15.00
2017-09-03T04:36:37.934Z,12.13
2017-09-03T04:39:03.704Z,15.20
2017-09-03T04:41:29.489Z,13.50
2017-09-03T04:43:55.230Z,9.97
2017-09-03T04:46:20.973Z,9.70
2017-09-03T04:48:46.912Z,14.43
2017-09-03T04:51:12.670Z,9.63
2017-09-03T04:53:38.439Z,8.63
2017-09-03T04:56:04.257Z,12.83
2017-09-03T04:58:30.064Z,12.13
2017-09-03T05:00:55.852Z,11.57
2017-09-03T05:03:21.595Z,11.00
2017-09-03T05:05:47.395Z,10.10
2017-09-03T05:08:13.130Z,10.60
2017-09-03T05:10:38.911Z,13.57
2017-09-03T05:13:04.712Z,14.87
2017-09-03T05:15:30.572Z,9.10
2017-09-03T05:17:56.309Z,10.73
2017-09-03T05:20:22.055Z,9.93
2017-09-03T05:22:47.830Z,12.33
2017-09-03T05:25:13.572Z,18.57
2017-09-03T05:27:39.362Z,14.70
2017-09-03T05:30:05.128Z,8.60
2017-09-03T05:32:30.894Z,11.67
2017-09-03T05:34:56.651Z,9.70
2017-09-03T05:37:22.475Z,13.77
2017-09-03T05:39:48.254Z,11.60
2017-09-03T05:42:14.084Z,9.87
2017-09-03T05:44:39.909Z,13.93
2017-09-03T05:47:05.695Z,10.80
2017-09-03T05:49:31.470Z,14.40
2017-09-03T05:51:57.270Z,12.07
2017-09-03T05:54:23.059Z,15.13
2017-09-03T05:56:48.909Z,13.90
2017-09-03T05:59:14.765Z,13.93
2017-09-03T06:01:40.604Z,13.80
2017-09-03T06:04:06.456Z,14.90
2017-09-03T06:06:32.305Z,13.30
2017-09-03T06:08:58.066Z,13.37
2017-09-03T06:11:23.889Z,14.63
2017-09-03T06:13:49.758Z,18.60
2017-09-03T06:16:15.508Z,15.60
2017-09-03T06:18:41.302Z,17.53
2017-09-03T06:21:07.038Z,15.90
2017-09-03T06:23:32.800Z,9.93
2017-09-03T06:25:58.558Z,9.80
2017-09-03T06:28:24.299Z,12.80
2017-09-03T06:30:50.110Z,9.53
2017-09-03T06:33:15.861Z,14.33
2017-09-03T06:35:41.604Z,11.67
2017-09-03T06:38:07.474Z,13.90
2017-09-03T06:40:33.243Z,13.10
2017-09-03T06:42:58.983Z,14.00
2017-09-03T06:45:24.859Z,21.57
2017-09-03T06:47:50.650Z,12.70
2017-09-03T06:50:16.432Z,13.40
2017-09-03T06:52:42.334Z,15.77
2017-09-03T06:55:08.189Z,19.97
2017-09-03T06:57:33.983Z,14.00
2017-09-03T06:59:59.778Z,13.30
2017-09-03T07:02:25.655Z,14.80
2017-09-03T07:04:51.411Z,12.33
2017-09-03T07:07:17.247Z,13.50
2017-09-03T07:09:43.114Z,12.40
2017-09-03T07:12:08.878Z,10.20
2017-09-03T07:14:34.722Z,12.27
2017-09-03T07:17:00.507Z,9.87
2017-09-03T07:19:26.276Z,12.93
2017-09-03T07:21:52.099Z,11.17
2017-09-03T07:24:17.966Z,15.03
2017-09-03T07:26:43.767Z,22.43
2017-09-03T07:29:09.543Z,15.83
2017-09-03T07:31:35.328Z,9.07
2017-09-03T07:34:01.073Z,9.07
2017-09-03T07:36:26.880Z,11.33
2017-09-03T07:38:52.671Z,12.80
2017-09-03T07:41:18.639Z,11.30
2017-09-03T07:43:44.432Z,10.60
2017-09-03T07:46:10.305Z,11.70
2017-09-03T07:48:36.070Z,13.33
2017-09-03T07:51:01.858Z,11.10
2017-09-03T07:53:27.632Z,14.53
2017-09-03T07:55:53.402Z,12.87
2017-09-03T07:58:19.203Z,12.43
2017-09-03T08:00:44.999Z,11.13
2017-09-03T08:03:10.768Z,13.90
2017-09-03T08:05:36.522Z,15.30
2017-09-03T08:08:02.335Z,12.27
2017-09-03T08:10:28.074Z,14.83
2017-09-03T08:12:53.815Z,11.90
2017-09-03T08:15:19.600Z,14.53
2017-09-03T08:17:45.374Z,12.93
2017-09-03T08:20:11.139Z,9.60
2017-09-03T08:22:36.935Z,12.53
2017-09-03T08:25:02.762Z,14.10
2017-09-03T08:27:28.578Z,10.83
2017-09-03T08:29:54.378Z,12.20
2017-09-03T08:32:20.232Z,12.53
2017-09-03T08:34:46.008Z,13.30
2017-09-03T08:37:11.900Z,17.70
2017-09-03T08:39:37.678Z,13.30
2017-09-03T08:42:03.446Z,13.50
2017-09-03T08:44:29.272Z,19.20
2017-09-03T08:46:55.019Z,10.83
2017-09-03T08:49:20.768Z,10.20
2017-09-03T08:51:46.557Z,10.53
2017-09-03T08:54:12.775Z,11.20
2017-09-03T08:56:39.002Z,11.80
2017-09-03T08:59:05.239Z,10.50
2017-09-03T09:01:31.471Z,17.40
2017-09-03T09:03:57.603Z,11.70
2017-09-03T09:06:23.734Z,12.63
2017-09-03T09:08:49.967Z,14.60
2017-09-03T09:11:16.000Z,14.80
2017-09-03T09:13:42.230Z,9.53
2017-09-03T09:16:08.371Z,9.73
2017-09-03T09:18:34.704Z,11.53
2017-09-03T09:21:00.835Z,10.63
2017-09-03T09:23:27.075Z,8.33
2017-09-03T09:25:53.094Z,9.40
2017-09-03T09:28:19.127Z,7.97
2017-09-03T09:30:45.362Z,12.57
2017-09-03T09:33:11.494Z,10.17
2017-09-03T09:35:37.523Z,11.50
2017-09-03T09:38:03.756Z,8.97
2017-09-03T09:40:29.891Z,11.90
2017-09-03T09:42:56.024Z,9.23
2017-09-03T09:45:22.154Z,10.43
2017-09-03T09:47:48.007Z,9.30
2017-09-03T09:50:14.421Z,9.30
2017-09-03T09:52:40.447Z,13.77
2017-09-03T09:55:06.684Z,11.10
2017-09-03T09:57:32.716Z,9.23
2017-09-03T09:59:58.954Z,8.60
2017-09-03T10:02:24.798Z,10.67
2017-09-03T10:04:50.559Z,10.00
2017-09-03T10:07:16.315Z,7.30
2017-09-03T10:09:42.103Z,9.57
2017-09-03T10:12:07.855Z,7.53
2017-09-03T10:14:33.654Z,9.97
2017-09-03T10:16:59.531Z,9.90
2017-09-03T10:19:25.275Z,12.00
2017-09-03T10:21:51.015Z,8.37
2017-09-03T10:24:16.802Z,7.73
2017-09-03T10:26:42.592Z,10.23
2017-09-03T10:29:08.346Z,8.93
2017-09-03T10:31:34.079Z,7.57
2017-09-03T10:33:59.867Z,8.07
2017-09-03T10:36:25.710Z,9.40
2017-09-03T10:38:51.498Z,10.37
2017-09-03T10:41:17.249Z,7.20
2017-09-03T10:43:43.046Z,9.83
2017-09-03T10:46:08.851Z,9.20
2017-09-03T10:48:34.691Z,9.93
2017-09-03T10:51:00.454Z,14.67
2017-09-03T10:53:26.278Z,8.93
2017-09-03T10:55:52.034Z,12.37
2017-09-03T10:58:17.780Z,11.00
2017-09-03T11:00:43.571Z,9.73
2017-09-03T11:03:09.321Z,15.60
2017-09-03T11:05:35.061Z,10.33
2017-09-03T11:08:00.847Z,12.47
2017-09-03T11:10:26.598Z,12.40
2017-09-03T11:12:52.392Z,16.07
2017-09-03T11:15:18.175Z,9.53
2017-09-03T11:17:43.981Z,12.73
2017-09-03T11:20:09.781Z,16.33
2017-09-03T11:22:35.635Z,9.97
2017-09-03T11:25:01.429Z,14.67
2017-09-03T11:27:27.331Z,10.87
2017-09-03T11:29:53.082Z,13.90
2017-09-03T11:32:18.834Z,11.20
2017-09-03T11:34:44.616Z,8.53
2017-09-03T11:37:10.424Z,13.07
2017-09-03T11:39:36.247Z,8.67
2017-09-03T11:42:02.046Z,11.67
2017-09-03T11:44:27.828Z,9.83
2017-09-03T11:46:53.599Z,9.70
2017-09-03T11:49:19.443Z,10.20
2017-09-03T11:51:45.240Z,12.50
2017-09-03T11:54:11.110Z,10.77
2017-09-03T11:56:36.867Z,11.80
2017-09-03T11:59:02.642Z,10.60
2017-09-03T12:01:28.459Z,10.60
2017-09-03T12:03:54.225Z,16.03
2017-09-03T12:06:20.007Z,12.43
2017-09-03T12:08:45.768Z,12.63
2017-09-03T12:11:11.535Z,14.07
2017-09-03T12:13:37.940Z,9.93
2017-09-03T12:16:03.699Z,11.90
2017-09-03T12:18:29.467Z,12.70
2017-09-03T12:20:55.237Z,13.43
2017-09-03T12:23:21.060Z,12.73
2017-09-03T12:25:46.841Z,13.40
2017-09-03T12:28:12.588Z,8.93
2017-09-03T12:30:38.390Z,13.50
2017-09-03T12:33:04.140Z,14.67
2017-09-03T12:35:29.950Z,15.70
2017-09-03T12:37:55.847Z,11.00
2017-09-03T12:40:21.634Z,8.87
2017-09-03T12:42:47.404Z,8.70
2017-09-03T12:45:13.205Z,9.57
2017-09-03T12:47:38.999Z,14.23
2017-09-03T12:50:04.785Z,9.70
2017-09-03T12:52:30.587Z,11.80
2017-09-03T12:54:57.629Z,12.23
2017-09-03T12:57:23.503Z,5.57
2017-09-03T12:59:49.280Z,13.20
2017-09-03T13:02:15.054Z,4.03
2017-09-03T13:04:40.858Z,6.73
2017-09-03T13:07:06.657Z,8.47
2017-09-03T13:09:32.491Z,12.53
2017-09-03T13:11:58.238Z,5.20
2017-09-03T13:14:23.987Z,10.90
2017-09-03T13:16:49.781Z,4.40
2017-09-03T13:19:15.567Z,4.47
2017-09-03T13:21:41.392Z,7.07
2017-09-03T13:24:07.214Z,6.00
2017-09-03T13:26:33.001Z,7.10
2017-09-03T13:28:58.863Z,8.23
2017-09-03T13:31:24.776Z,4.83
2017-09-03T13:33:50.630Z,3.20
2017-09-03T13:36:16.436Z,6.13
2017-09-03T13:38:42.247Z,3.43
2017-09-03T13:41:08.134Z,2.60
2017-09-03T13:43:33.886Z,1.73
2017-09-03T13:45:59.638Z,2.67
2017-09-03T13:48:25.424Z,1.90
2017-09-03T13:50:51.269Z,2.60
2017-09-03T13:53:17.124Z,1.47
2017-09-03T13:55:42.876Z,3.07
2017-09-03T13:58:08.691Z,2.13
2017-09-03T14:00:34.442Z,1.73
2017-09-03T14:03:00.200Z,6.93
2017-09-03T14:05:25.995Z,4.23
2017-09-03T14:07:51.730Z,2.13
2017-09-03T14:10:17.492Z,6.00
2017-09-03T14:12:43.316Z,3.00
2017-09-03T14:15:09.058Z,3.13
2017-09-03T14:17:34.854Z,1.63
2017-09-03T14:20:00.616Z,2.90
2017-09-03T14:22:26.367Z,6.17
2017-09-03T14:24:52.131Z,1.93
2017-09-03T14:27:17.953Z,5.80
2017-09-03T14:29:43.731Z,1.70
2017-09-03T14:32:09.575Z,2.70
2017-09-03T14:34:35.341Z,3.30
2017-09-03T14:37:01.131Z,2.00
2017-09-03T14:39:26.910Z,2.77
2017-09-03T14:41:52.717Z,2.60
2017-09-03T14:44:18.573Z,2.30
2017-09-03T14:46:44.319Z,1.90
2017-09-03T14:49:10.061Z,1.53
2017-09-03T14:51:35.845Z,7.43
2017-09-03T14:54:01.597Z,1.67
2017-09-03T14:56:27.339Z,2.60
2017-09-03T14:58:53.195Z,1.87
2017-09-03T15:01:18.961Z,2.83
2017-09-03T15:03:44.730Z,2.07
2017-09-03T15:06:10.564Z,1.30
2017-09-03T15:08:36.304Z,1.70
2017-09-03T15:11:02.079Z,2.00
2017-09-03T15:13:27.841Z,2.40
2017-09-03T15:15:53.628Z,2.70
2017-09-03T15:18:19.468Z,2.77
2017-09-03T15:20:45.761Z,2.90
2017-09-03T15:23:11.576Z,2.80
2017-09-03T15:25:37.306Z,10.80
2017-09-03T15:28:03.049Z,2.47
2017-09-03T15:30:28.845Z,1.97
2017-09-03T15:32:54.730Z,2.03
2017-09-03T15:35:20.527Z,2.50
2017-09-03T15:37:46.364Z,2.13
2017-09-03T15:40:12.102Z,2.43
2017-09-03T15:42:37.901Z,1.60
2017-09-03T15:45:03.772Z,3.13
2017-09-03T15:47:29.556Z,1.97
2017-09-03T15:49:55.355Z,1.60
2017-09-03T15:52:21.111Z,1.87
2017-09-03T15:54:46.900Z,1.47
2017-09-03T15:57:12.674Z,1.70
2017-09-03T15:59:38.422Z,1.80
2017-09-03T16:02:04.228Z,1.97
2017-09-03T16:04:30.020Z,1.60
2017-09-03T16:06:55.883Z,3.13
2017-09-03T16:09:21.637Z,1.40
2017-09-03T16:11:47.379Z,3.53
2017-09-03T16:14:13.159Z,1.30
2017-09-03T16:16:39.582Z,2.87
2017-09-03T16:19:05.398Z,2.60
2017-09-03T16:21:31.143Z,1.67
2017-09-03T16:23:56.920Z,2.70
2017-09-03T16:26:22.675Z,1.37
2017-09-03T16:28:48.467Z,1.33
2017-09-03T16:31:14.218Z,1.47
2017-09-03T16:33:39.976Z,1.23
2017-09-03T16:36:05.766Z,2.77
2017-09-03T16:38:31.564Z,1.10
2017-09-03T16:43:37.175Z,2.30
2017-09-03T16:46:02.923Z,2.00
2017-09-03T16:48:28.682Z,2.57
2017-09-03T16:50:54.483Z,1.23
2017-09-03T16:53:20.227Z,2.80
2017-09-03T16:55:46.024Z,1.80
2017-09-03T16:58:11.807Z,2.23
2017-09-03T17:00:37.655Z,1.90
2017-09-03T17:03:03.443Z,1.83
2017-09-03T17:05:29.216Z,2.10
2017-09-03T17:07:55.038Z,3.23
2017-09-03T17:10:20.826Z,2.00
2017-09-03T17:12:46.584Z,1.90
2017-09-03T17:15:12.379Z,1.77
2017-09-03T17:17:38.191Z,2.53
2017-09-03T17:20:03.952Z,2.07
2017-09-03T17:22:29.767Z,1.47
2017-09-03T17:24:55.598Z,6.97
2017-09-03T17:27:21.391Z,2.27
2017-09-03T17:29:48.056Z,2.83
2017-09-03T17:32:13.860Z,2.50
2017-09-03T17:34:42.533Z,1.60
2017-09-03T17:37:11.466Z,2.60
2017-09-03T17:39:42.127Z,3.30
2017-09-03T17:42:10.756Z,5.50
2017-09-03T17:44:36.639Z,2.40
2017-09-03T17:47:02.443Z,2.03
2017-09-03T17:49:28.190Z,1.93
2017-09-03T17:51:54.363Z,3.87
2017-09-03T17:54:20.161Z,3.47
2017-09-03T17:56:45.922Z,1.93
2017-09-03T17:59:11.738Z,1.77
2017-09-03T18:01:37.538Z,1.97
2017-09-03T18:04:03.399Z,2.77
2017-09-03T18:06:29.247Z,2.80
2017-09-03T18:08:55.097Z,2.50
2017-09-03T18:11:20.867Z,2.90
2017-09-03T18:13:46.662Z,2.47
2017-09-03T18:16:12.443Z,2.80
2017-09-03T18:18:38.233Z,3.67
2017-09-03T18:21:04.055Z,2.70
2017-09-03T18:23:29.826Z,4.10
2017-09-03T18:25:55.619Z,3.57
2017-09-03T18:28:24.368Z,3.13
2017-09-03T18:30:50.115Z,2.40
2017-09-03T18:33:15.916Z,2.87
2017-09-03T18:35:42.610Z,1.83
2017-09-03T18:38:09.298Z,4.13
2017-09-03T18:40:36.950Z,4.27
2017-09-03T18:43:06.730Z,2.50
2017-09-03T18:45:33.391Z,2.62
2017-09-03T18:47:59.149Z,2.30
2017-09-03T18:50:25.844Z,3.20
2017-09-03T18:52:52.415Z,2.60
2017-09-03T18:55:18.217Z,3.80
2017-09-03T18:57:48.814Z,6.00
2017-09-03T19:00:14.566Z,2.60
2017-09-03T19:02:40.353Z,3.57
2017-09-03T19:05:06.107Z,3.40
2017-09-03T19:07:31.983Z,2.73
2017-09-03T19:09:57.774Z,1.97
2017-09-03T19:12:23.684Z,4.07
2017-09-03T19:14:49.458Z,3.40
2017-09-03T19:17:15.240Z,5.97
2017-09-03T19:19:40.990Z,8.30
2017-09-03T19:22:06.803Z,3.53
2017-09-03T19:24:32.627Z,2.47
2017-09-03T19:26:58.396Z,3.37
2017-09-03T19:29:24.181Z,2.90
2017-09-03T19:31:49.930Z,4.63
2017-09-03T19:34:15.740Z,3.53
2017-09-03T19:36:41.497Z,3.70
2017-09-03T19:39:07.278Z,3.63
2017-09-03T19:41:33.044Z,4.20
2017-09-03T19:43:58.810Z,3.23
2017-09-03T19:46:24.620Z,5.67
2017-09-03T19:48:50.374Z,2.40
2017-09-03T19:51:16.140Z,2.40
2017-09-03T19:53:41.892Z,3.00
2017-09-03T19:56:07.674Z,3.63
2017-09-03T19:58:33.411Z,3.20
2017-09-03T20:00:59.178Z,4.40
2017-09-03T20:03:25.002Z,4.17
2017-09-03T20:05:50.772Z,4.00
2017-09-03T20:08:16.555Z,3.80
2017-09-03T20:10:42.290Z,3.23
2017-09-03T20:13:08.079Z,3.97
2017-09-03T20:15:33.926Z,5.33
2017-09-03T20:17:59.707Z,3.10
2017-09-03T20:20:26.307Z,4.83
2017-09-03T20:22:52.068Z,4.25
2017-09-03T20:25:17.853Z,3.80
2017-09-03T20:27:43.676Z,5.53
2017-09-03T20:30:09.469Z,43.20
2017-09-03T20:32:35.269Z,12.63
2017-09-03T20:35:01.017Z,6.53
2017-09-03T20:37:26.779Z,3.67
2017-09-03T20:39:52.543Z,4.20
2017-09-03T20:42:18.328Z,3.50
2017-09-03T20:44:44.104Z,4.17
2017-09-03T20:47:09.972Z,3.73
2017-09-03T20:49:35.779Z,3.43
2017-09-03T20:52:01.586Z,3.40
2017-09-03T20:54:27.325Z,4.20
2017-09-03T20:56:53.100Z,4.50
2017-09-03T20:59:18.999Z,3.83
2017-09-03T21:01:44.768Z,5.20
2017-09-03T21:04:10.627Z,4.17
2017-09-03T21:06:36.409Z,4.60
2017-09-03T21:09:02.222Z,3.30
2017-09-03T21:11:27.991Z,4.23
2017-09-03T21:13:54.567Z,3.93
2017-09-03T21:16:20.352Z,3.67
2017-09-03T21:18:46.122Z,4.40
2017-09-03T21:21:11.907Z,3.70
2017-09-03T21:23:37.663Z,5.80
2017-09-03T21:26:03.408Z,7.57
2017-09-03T21:28:29.183Z,9.93
2017-09-03T21:30:54.926Z,10.03
2017-09-03T21:33:20.712Z,8.87
2017-09-03T21:35:46.463Z,10.23
2017-09-03T21:38:12.199Z,5.23
2017-09-03T21:40:37.966Z,7.30
2017-09-03T21:43:03.695Z,4.40
2017-09-03T21:45:29.490Z,3.70
2017-09-03T21:47:55.263Z,3.30
2017-09-03T21:50:21.046Z,5.23
2017-09-03T21:52:46.820Z,5.17
2017-09-03T21:55:12.585Z,4.80
2017-09-03T21:57:38.390Z,6.10
2017-09-03T22:00:04.171Z,4.23
2017-09-03T22:02:30.006Z,4.90
2017-09-03T22:04:55.763Z,4.40
2017-09-03T22:07:21.507Z,9.13
2017-09-03T22:09:47.292Z,4.10
2017-09-03T22:12:13.064Z,3.87
2017-09-03T22:14:38.808Z,5.33
2017-09-03T22:17:04.582Z,4.47
2017-09-03T22:19:30.367Z,4.73
2017-09-03T22:21:56.107Z,4.90
2017-09-03T22:24:21.883Z,6.60
2017-09-03T22:26:47.622Z,6.00
2017-09-03T22:29:13.398Z,4.77
2017-09-03T22:31:39.146Z,6.63
2017-09-03T22:34:04.934Z,12.67
2017-09-03T22:36:30.674Z,4.83
2017-09-03T22:38:56.523Z,5.80
2017-09-03T22:41:22.299Z,5.37
2017-09-03T22:43:48.062Z,9.33
2017-09-03T22:46:13.791Z,6.83
2017-09-03T22:48:39.570Z,6.63
2017-09-03T22:51:05.309Z,5.50
2017-09-03T22:53:31.065Z,6.73
2017-09-03T22:55:56.865Z,8.70
2017-09-03T22:58:22.624Z,5.70
2017-09-03T23:00:48.407Z,5.13
2017-09-03T23:03:14.163Z,4.97
2017-09-03T23:05:39.935Z,12.33
2017-09-03T23:08:05.709Z,6.70
2017-09-03T23:10:31.466Z,6.47
2017-09-03T23:12:57.194Z,8.93
2017-09-03T23:15:22.993Z,7.53
2017-09-03T23:17:48.753Z,10.17
2017-09-03T23:20:14.509Z,17.07
2017-09-03T23:22:40.276Z,6.30
2017-09-03T23:25:06.038Z,7.07
2017-09-03T23:27:31.775Z,8.57
2017-09-03T23:29:57.626Z,8.93
2017-09-03T23:32:23.375Z,7.40
2017-09-03T23:34:49.123Z,8.10
2017-09-03T23:37:14.903Z,6.60
2017-09-03T23:39:40.683Z,9.90
2017-09-03T23:42:06.419Z,7.43
2017-09-03T23:44:32.235Z,7.73
2017-09-03T23:46:57.988Z,6.60
2017-09-03T23:49:23.797Z,5.87
2017-09-03T23:51:49.532Z,7.00
2017-09-03T23:54:15.282Z,10.00
2017-09-03T23:56:41.057Z,13.33
2017-09-03T23:59:06.816Z,6.40
